Accueil
METAR-TAF:

METAR-TAF

Aéroports :

Cartwright, Terre-Neuve-et-Labrador, Canada

latitude: 53-42N, longitude: 057-02W, altitude: 14 m

Observation

Le bulletin a été fait il y a 1 heure et 10 minutes, à 20:00 UTC
Vent 8 kt de nord
Température 0°C
Humidité 74%
Pression 1014 hPa
Visibilité: 24.1 km
Nuages fragmentés à une hauteur de 2000 ft
Nuages fragmentés à une hauteur de 2500 ft

METAR: CWCA 242000Z 01008KT 15SM BKN020 BKN025 M00/M04 A2995 RMK SC5CU1 SLP143

Heure: 18:40 (21:10 UTC)


TAF: absent

Observations et prévisions météorologiques de plus de 4000 aéroports (messages METAR et TAF).

Les stations disponibles sont représentées par des disques jaunes et rouges sur la carte.

Passer la souris dessus pour voir le nom de la station.

Cliquer dessus pour voir les observations et prévisions météorologiques.

Pour changer de carte: cliquez sur les boutons verts avec une croix noire pour zoomer, sur le bouton vert avec un tiret pour effectuer un zoom arrière, ou sur les flèches vertes pour les cartes adjacentes.


METAR-TAF: